Time;durP1;ratioP1;P1;durP2;ratioP2;P2;SDS_P1;SDS_P2;PMS_P1;PMS_P2;Temp;Humidity;BMP_temperature;BMP_pressure;BME280_temperature;BME280_humidity;BME280_pressure;Samples;Min_cycle;Max_cycle;Signal;HPM_P1;HPM_P2
2023/06/01 00:00:38;;;;;;;;;;;;;;;;;;6075717;23;19921;-77
2023/06/01 00:03:08;;;;;;;;;;;;;;;;;;6076415;23;20360;-77
2023/06/01 00:05:38;;;;;;;;;;;;;;;;;;6099623;23;19921;-77
2023/06/01 00:08:07;;;;;;;;;;;;;;;;;;6075947;23;20384;-77
2023/06/01 00:10:36;;;;;;;;;;;;;;;;;;6075417;23;19928;-77
2023/06/01 00:13:07;;;;;;;;;;;;;;;;;;6075903;23;20326;-77
2023/06/01 00:15:35;;;;;;;;;;;;;;;;;;6100557;23;19928;-77
2023/06/01 00:18:02;;;;;;;;;;;;;;;;;;6076523;23;19921;-77
2023/06/01 00:20:32;;;;;;;;;;;;;;;;;;6075034;23;19929;-77
2023/06/01 00:22:59;;;;;;;;;;;;;;;;;;6074743;23;20230;-77
2023/06/01 00:25:29;;;;;;;;;;;;;;;;;;6098833;23;19925;-77
2023/06/01 00:27:56;;;;;;;;;;;;;;;;;;6076482;23;20368;-77
2023/06/01 00:30:27;;;;;;;;;;;;;;;;;;6098579;23;20235;-77
2023/06/01 00:32:54;;;;;;;;;;;;;;;;;;6133734;23;19921;-77
2023/06/01 00:35:23;;;;;;;;;;;;;;;;;;6099736;23;19921;-77
2023/06/01 00:37:58;;;;;;;;;;;;;;;;;;6126196;23;19921;-77
2023/06/01 00:40:30;;;;;;;;;;;;;;;;;;6099158;23;20266;-77
2023/06/01 00:43:02;;;;;;;;;;;;;;;;;;6075655;23;19921;-78
2023/06/01 00:45:30;;;;;;;;;;;;;;;;;;6075317;23;19948;-77
2023/06/01 00:47:57;;;;;;;;;;;;;;;;;;6076014;23;20285;-77
2023/06/01 00:50:24;;;;;;;;;;;;;;;;;;6074676;23;20245;-77
2023/06/01 00:52:51;;;;;;;;;;;;;;;;;;6075524;23;19928;-77
2023/06/01 00:55:18;;;;;;;;;;;;;;;;;;6075452;23;19932;-77
2023/06/01 00:57:48;;;;;;;;;;;;;;;;;;6124812;23;20341;-77
2023/06/01 01:00:15;;;;;;;;;;;;;;;;;;6075567;23;19928;-77
2023/06/01 01:02:48;;;;;;;;;;;;;;;;;;6099554;23;19921;-77
2023/06/01 01:05:19;;;;;;;;;;;;;;;;;;6073903;23;19928;-77
2023/06/01 01:07:50;;;;;;;;;;;;;;;;;;6075642;23;20338;-77
2023/06/01 01:10:20;;;;;;;;;;;;;;;;;;6124821;23;19925;-77
2023/06/01 01:13:17;;;;;;;;;;;;;;;;;;6134920;23;20293;-77
2023/06/01 01:15:51;;;;;;;;;;;;;;;;;;6110274;23;19920;-77
2023/06/01 01:18:27;;;;;;;;;;;;;;;;;;6075165;23;19921;-77
2023/06/01 01:20:57;;;;;;;;;;;;;;;;;;6074478;23;19928;-77
2023/06/01 01:23:32;;;;;;;;;;;;;;;;;;6074761;23;19921;-77
2023/06/01 01:26:10;;;;;;;;;;;;;;;;;;6133529;23;20361;-77
2023/06/01 01:28:42;;;;;;;;;;;;;;;;;;6074254;23;19925;-77
2023/06/01 01:31:12;;;;;;;;;;;;;;;;;;6133757;23;19921;-77
2023/06/01 01:33:40;;;;;;;;;;;;;;;;;;6074896;23;19921;-77
2023/06/01 01:36:09;;;;;;;;;;;;;;;;;;6099639;23;19925;-77
2023/06/01 01:38:39;;;;;;;;;;;;;;;;;;6098425;23;19932;-77
2023/06/01 01:41:09;;;;;;;;;;;;;;;;;;6075836;23;19925;-77
2023/06/01 01:43:36;;;;;;;;;;;;;;;;;;6074420;23;20262;-77
2023/06/01 01:46:09;;;;;;;;;;;;;;;;;;6075389;23;20239;-77
2023/06/01 01:48:38;;;;;;;;;;;;;;;;;;6132772;23;20254;-77
2023/06/01 01:51:10;;;;;;;;;;;;;;;;;;6075625;23;20252;-77
2023/06/01 01:53:40;;;;;;;;;;;;;;;;;;6123274;23;20289;-77
2023/06/01 01:56:07;;;;;;;;;;;;;;;;;;6075055;23;19921;-77
2023/06/01 01:58:36;;;;;;;;;;;;;;;;;;6123326;23;19928;-77
2023/06/01 02:01:03;;;;;;;;;;;;;;;;;;6074652;23;19932;-77
2023/06/01 02:03:32;;;;;;;;;;;;;;;;;;6074732;23;19921;-77
2023/06/01 02:06:03;;;;;;;;;;;;;;;;;;6099690;23;19921;-77
2023/06/01 02:08:33;;;;;;;;;;;;;;;;;;6072486;23;19925;-77
2023/06/01 02:11:02;;;;;;;;;;;;;;;;;;6074782;23;19921;-77
2023/06/01 02:13:29;;;;;;;;;;;;;;;;;;6098912;23;19925;-77
2023/06/01 02:15:56;;;;;;;;;;;;;;;;;;6123871;23;19928;-77
2023/06/01 02:18:25;;;;;;;;;;;;;;;;;;6098256;23;19944;-77
2023/06/01 02:20:53;;;;;;;;;;;;;;;;;;6125196;23;19928;-77
2023/06/01 02:23:23;;;;;;;;;;;;;;;;;;6074455;23;19928;-77
2023/06/01 02:25:52;;;;;;;;;;;;;;;;;;6098569;23;19921;-77
2023/06/01 02:28:24;;;;;;;;;;;;;;;;;;6099463;23;19921;-77
2023/06/01 02:30:51;;;;;;;;;;;;;;;;;;6098205;23;19921;-77
2023/06/01 02:33:24;;;;;;;;;;;;;;;;;;6108354;23;19921;-77
2023/06/01 02:35:51;;;;;;;;;;;;;;;;;;6075255;23;20372;-77
2023/06/01 02:38:20;;;;;;;;;;;;;;;;;;6099249;23;20257;-77
2023/06/01 02:40:47;;;;;;;;;;;;;;;;;;6098847;23;19921;-77
2023/06/01 02:43:17;;;;;;;;;;;;;;;;;;6122338;23;19921;-77
2023/06/01 02:45:44;;;;;;;;;;;;;;;;;;6123905;23;19943;-77
2023/06/01 02:48:11;;;;;;;;;;;;;;;;;;6074423;23;19920;-77
2023/06/01 02:50:41;;;;;;;;;;;;;;;;;;6098505;23;19932;-77
2023/06/01 02:53:10;;;;;;;;;;;;;;;;;;6074102;23;19921;-77
2023/06/01 02:55:41;;;;;;;;;;;;;;;;;;6074795;23;19925;-77
2023/06/01 02:58:29;;;;;;;;;;;;;;;;;;6123305;23;20246;-77
2023/06/01 03:01:35;;;;;;;;;;;;;;;;;;6115296;23;19921;-77
2023/06/01 03:04:08;;;;;;;;;;;;;;;;;;6073122;23;19924;-77
2023/06/01 03:06:36;;;;;;;;;;;;;;;;;;6074864;23;19921;-77
2023/06/01 03:09:23;;;;;;;;;;;;;;;;;;6124812;23;20254;-77
2023/06/01 03:11:55;;;;;;;;;;;;;;;;;;6100624;23;19929;-77
2023/06/01 03:14:24;;;;;;;;;;;;;;;;;;6099218;23;19928;-78
2023/06/01 03:16:51;;;;;;;;;;;;;;;;;;6076886;23;19925;-77
2023/06/01 03:19:21;;;;;;;;;;;;;;;;;;6076538;23;20258;-77
2023/06/01 03:21:51;;;;;;;;;;;;;;;;;;6076375;23;19941;-77
2023/06/01 03:24:27;;;;;;;;;;;;;;;;;;6098983;23;19921;-77
2023/06/01 03:26:56;;;;;;;;;;;;;;;;;;6077180;23;19921;-77
2023/06/01 03:29:30;;;;;;;;;;;;;;;;;;6100319;23;19928;-77
2023/06/01 03:31:59;;;;;;;;;;;;;;;;;;6076248;23;19927;-77
2023/06/01 03:34:27;;;;;;;;;;;;;;;;;;6076251;23;19921;-77
2023/06/01 03:36:54;;;;;;;;;;;;;;;;;;6100137;23;19921;-77
2023/06/01 03:39:21;;;;;;;;;;;;;;;;;;6076493;23;20361;-77
2023/06/01 03:41:50;;;;;;;;;;;;;;;;;;6076343;23;20350;-77
2023/06/01 03:44:19;;;;;;;;;;;;;;;;;;6075731;23;19928;-77
2023/06/01 03:46:49;;;;;;;;;;;;;;;;;;6075913;23;20333;-77
2023/06/01 03:49:18;;;;;;;;;;;;;;;;;;6075934;23;20352;-77
2023/06/01 03:51:45;;;;;;;;;;;;;;;;;;6076004;23;19921;-77
2023/06/01 03:54:13;;;;;;;;;;;;;;;;;;6072465;23;19921;-78
2023/06/01 03:56:45;;;;;;;;;;;;;;;;;;6074453;23;19924;-78
2023/06/01 03:59:14;;;;;;;;;;;;;;;;;;6076018;23;19920;-78
2023/06/01 04:01:43;;;;;;;;;;;;;;;;;;6100074;23;19921;-78
2023/06/01 04:04:12;;;;;;;;;;;;;;;;;;6097110;23;20357;-78
2023/06/01 04:06:44;;;;;;;;;;;;;;;;;;6099213;23;20258;-78
2023/06/01 04:09:14;;;;;;;;;;;;;;;;;;6130957;23;19928;-78
2023/06/01 04:11:45;;;;;;;;;;;;;;;;;;6076543;23;19925;-78
2023/06/01 04:14:15;;;;;;;;;;;;;;;;;;6098339;23;19921;-78
2023/06/01 04:16:46;;;;;;;;;;;;;;;;;;6122595;23;19921;-78
2023/06/01 04:19:14;;;;;;;;;;;;;;;;;;6075205;23;19928;-78
2023/06/01 04:21:43;;;;;;;;;;;;;;;;;;6123546;23;20257;-77
2023/06/01 04:24:10;;;;;;;;;;;;;;;;;;6098530;23;19924;-77
2023/06/01 04:26:37;;;;;;;;;;;;;;;;;;6074947;23;20285;-77
2023/06/01 04:29:05;;;;;;;;;;;;;;;;;;6099777;23;19928;-77
2023/06/01 04:31:34;;;;;;;;;;;;;;;;;;6076907;23;19921;-77
2023/06/01 04:34:05;;;;;;;;;;;;;;;;;;6074561;23;19928;-77
2023/06/01 04:36:38;;;;;;;;;;;;;;;;;;6107900;23;19924;-77
2023/06/01 04:39:08;;;;;;;;;;;;;;;;;;6131540;23;19921;-78
2023/06/01 04:41:35;;;;;;;;;;;;;;;;;;6134488;23;19927;-77
2023/06/01 04:44:08;;;;;;;;;;;;;;;;;;6109294;23;20254;-77
2023/06/01 04:46:39;;;;;;;;;;;;;;;;;;6074818;23;19921;-77
2023/06/01 04:49:11;;;;;;;;;;;;;;;;;;6100219;23;19921;-77
2023/06/01 04:51:41;;;;;;;;;;;;;;;;;;6074877;23;19932;-77
2023/06/01 04:54:09;;;;;;;;;;;;;;;;;;6123001;23;19944;-77
2023/06/01 04:56:38;;;;;;;;;;;;;;;;;;6075823;23;19921;-77
2023/06/01 04:59:08;;;;;;;;;;;;;;;;;;6124524;23;19921;-77
2023/06/01 05:01:38;;;;;;;;;;;;;;;;;;6075770;23;19927;-77
2023/06/01 05:04:07;;;;;;;;;;;;;;;;;;6074687;23;19921;-77
2023/06/01 05:06:39;;;;;;;;;;;;;;;;;;6098529;23;19924;-77
2023/06/01 05:09:08;;;;;;;;;;;;;;;;;;6100048;23;19921;-77
2023/06/01 05:11:38;;;;;;;;;;;;;;;;;;6076348;23;19921;-79
2023/06/01 05:14:05;;;;;;;;;;;;;;;;;;6098707;23;19928;-78
2023/06/01 05:16:35;;;;;;;;;;;;;;;;;;6074916;23;19932;-78
2023/06/01 05:19:04;;;;;;;;;;;;;;;;;;6074225;23;19920;-78
2023/06/01 05:21:32;;;;;;;;;;;;;;;;;;6099272;23;20181;-78
2023/06/01 05:24:03;;;;;;;;;;;;;;;;;;6074921;23;19921;-78
2023/06/01 05:26:33;;;;;;;;;;;;;;;;;;6133582;23;19972;-78
2023/06/01 05:29:00;;;;;;;;;;;;;;;;;;6098603;23;19932;-78
2023/06/01 05:31:30;;;;;;;;;;;;;;;;;;6075483;23;19921;-78
2023/06/01 05:34:00;;;;;;;;;;;;;;;;;;6074145;23;20254;-78
2023/06/01 05:36:31;;;;;;;;;;;;;;;;;;6109201;23;19921;-76
2023/06/01 05:39:01;;;;;;;;;;;;;;;;;;6074937;23;19925;-77
2023/06/01 05:41:30;;;;;;;;;;;;;;;;;;6075826;23;19921;-76
2023/06/01 05:47:06;;;;;;;;;;;;;;;;;;6072959;23;19928;-78
2023/06/01 05:49:36;;;;;;;;;;;;;;;;;;6084425;23;20421;-78
2023/06/01 05:52:05;;;;;;;;;;;;;;;;;;6046770;23;19922;-78
2023/06/01 05:54:32;;;;;;;;;;;;;;;;;;6046309;23;20001;-78
2023/06/01 05:57:01;;;;;;;;;;;;;;;;;;6026555;23;20339;-79
2023/06/01 05:59:29;;;;;;;;;;;;;;;;;;6025760;23;19922;-79
2023/06/01 06:01:56;;;;;;;;;;;;;;;;;;6050062;23;19926;-79
2023/06/01 06:04:27;;;;;;;;;;;;;;;;;;6049001;23;20061;-79
2023/06/01 06:06:57;;;;;;;;;;;;;;;;;;6074786;23;19932;-79
2023/06/01 06:09:27;;;;;;;;;;;;;;;;;;6073996;23;20272;-78
2023/06/01 06:11:54;;;;;;;;;;;;;;;;;;6072086;23;19922;-80
2023/06/01 06:14:22;;;;;;;;;;;;;;;;;;6074284;23;19921;-80
2023/06/01 06:16:52;;;;;;;;;;;;;;;;;;6051348;23;19922;-79
2023/06/01 06:19:23;;;;;;;;;;;;;;;;;;6076469;23;20263;-79
2023/06/01 06:21:50;;;;;;;;;;;;;;;;;;6064064;23;19922;-79
2023/06/01 06:24:17;;;;;;;;;;;;;;;;;;6026977;23;19922;-80
2023/06/01 06:26:47;;;;;;;;;;;;;;;;;;6051749;23;19922;-79
2023/06/01 06:29:14;;;;;;;;;;;;;;;;;;6050004;23;20258;-80
2023/06/01 06:31:43;;;;;;;;;;;;;;;;;;6074983;23;19921;-80
2023/06/01 06:34:11;;;;;;;;;;;;;;;;;;6026008;23;20266;-80
2023/06/01 06:36:41;;;;;;;;;;;;;;;;;;6049607;23;19925;-80
2023/06/01 06:39:12;;;;;;;;;;;;;;;;;;6079951;23;19926;-78
2023/06/01 06:41:42;;;;;;;;;;;;;;;;;;6068083;23;19928;-78
2023/06/01 06:44:09;;;;;;;;;;;;;;;;;;6045788;23;19929;-79
2023/06/01 06:46:36;;;;;;;;;;;;;;;;;;6078669;23;19925;-79
2023/06/01 06:49:05;;;;;;;;;;;;;;;;;;6052421;23;19922;-79
2023/06/01 06:51:32;;;;;;;;;;;;;;;;;;6052555;23;19922;-79
2023/06/01 06:54:05;;;;;;;;;;;;;;;;;;6029609;23;19922;-79
2023/06/01 06:56:37;;;;;;;;;;;;;;;;;;6052955;23;19925;-79
2023/06/01 06:59:06;;;;;;;;;;;;;;;;;;6053456;23;19930;-79
2023/06/01 07:01:37;;;;;;;;;;;;;;;;;;6078879;23;19921;-79
2023/06/01 07:04:06;;;;;;;;;;;;;;;;;;6054387;23;19922;-79
2023/06/01 07:06:36;;;;;;;;;;;;;;;;;;6032788;23;19922;-79
2023/06/01 07:09:07;;;;;;;;;;;;;;;;;;6032639;23;19921;-79
2023/06/01 07:11:37;;;;;;;;;;;;;;;;;;6057265;23;19932;-79
2023/06/01 07:14:04;;;;;;;;;;;;;;;;;;6032647;23;19922;-79
2023/06/01 07:16:31;;;;;;;;;;;;;;;;;;6058002;23;19921;-79
2023/06/01 07:18:58;;;;;;;;;;;;;;;;;;6082885;23;19928;-79
2023/06/01 07:21:32;;;;;;;;;;;;;;;;;;6057876;23;20262;-79
2023/06/01 07:23:59;;;;;;;;;;;;;;;;;;6028596;23;19925;-79
2023/06/01 07:26:28;;;;;;;;;;;;;;;;;;6075039;23;19922;-79
2023/06/01 07:28:56;;;;;;;;;;;;;;;;;;6074727;23;20355;-79
2023/06/01 07:31:27;;;;;;;;;;;;;;;;;;6027301;23;19928;-79
2023/06/01 07:33:55;;;;;;;;;;;;;;;;;;6074393;23;19921;-79
2023/06/01 07:36:23;;;;;;;;;;;;;;;;;;6048985;23;19922;-79
2023/06/01 07:38:53;;;;;;;;;;;;;;;;;;6056762;23;19921;-79
2023/06/01 07:41:21;;;;;;;;;;;;;;;;;;6035777;23;19922;-79
2023/06/01 07:43:48;;;;;;;;;;;;;;;;;;6083897;23;19921;-80
2023/06/01 07:46:15;;;;;;;;;;;;;;;;;;6035593;23;19922;-80
2023/06/01 07:48:43;;;;;;;;;;;;;;;;;;6060781;23;19928;-80
2023/06/01 07:51:13;;;;;;;;;;;;;;;;;;6059913;23;19921;-80
2023/06/01 07:53:42;;;;;;;;;;;;;;;;;;6057979;23;19922;-80
2023/06/01 07:56:12;;;;;;;;;;;;;;;;;;6083400;23;20278;-80
2023/06/01 07:58:39;;;;;;;;;;;;;;;;;;6056063;23;20435;-80
2023/06/01 08:01:08;;;;;;;;;;;;;;;;;;6075980;23;19926;-80
2023/06/01 08:03:43;;;;;;;;;;;;;;;;;;6079313;23;19925;-80
2023/06/01 08:06:11;;;;;;;;;;;;;;;;;;6053481;23;19922;-80
2023/06/01 08:08:38;;;;;;;;;;;;;;;;;;6093992;23;19921;-80
2023/06/01 08:11:16;;;;;;;;;;;;;;;;;;6080451;23;20351;-80
2023/06/01 08:13:48;;;;;;;;;;;;;;;;;;6023804;23;19926;-80
2023/06/01 08:16:26;;;;;;;;;;;;;;;;;;6081725;23;19926;-80
2023/06/01 08:18:58;;;;;;;;;;;;;;;;;;6080594;23;19926;-80
2023/06/01 08:21:25;;;;;;;;;;;;;;;;;;6047257;23;19928;-80
2023/06/01 08:23:54;;;;;;;;;;;;;;;;;;6024095;23;19932;-80
2023/06/01 08:26:23;;;;;;;;;;;;;;;;;;6074424;23;19922;-80
2023/06/01 08:28:52;;;;;;;;;;;;;;;;;;6032626;23;19921;-79
2023/06/01 08:31:20;;;;;;;;;;;;;;;;;;6043780;23;19936;-79
2023/06/01 08:33:47;;;;;;;;;;;;;;;;;;6069288;23;19921;-79
2023/06/01 08:36:16;;;;;;;;;;;;;;;;;;6067853;23;19932;-79
2023/06/01 08:39:22;;;;;;;;;;;;;;;;;;6048706;23;20297;-80
2023/06/01 08:41:55;;;;;;;;;;;;;;;;;;6043707;23;19926;-78
2023/06/01 08:44:25;;;;;;;;;;;;;;;;;;6043032;23;19928;-79
2023/06/01 08:46:57;;;;;;;;;;;;;;;;;;6024636;23;19926;-80
2023/06/01 08:49:24;;;;;;;;;;;;;;;;;;6049510;23;19925;-80
2023/06/01 08:52:03;;;;;;;;;;;;;;;;;;6050091;23;19922;-80
2023/06/01 08:54:35;;;;;;;;;;;;;;;;;;6022205;23;19921;-79
2023/06/01 08:57:28;;;;;;;;;;;;;;;;;;6080910;23;19925;-79
2023/06/01 09:00:07;;;;;;;;;;;;;;;;;;6075334;23;19930;-79
2023/06/01 09:02:54;;;;;;;;;;;;;;;;;;6068869;23;19922;-80
2023/06/01 09:05:26;;;;;;;;;;;;;;;;;;6043866;23;19922;-79
2023/06/01 09:07:54;;;;;;;;;;;;;;;;;;6043361;23;19922;-79
2023/06/01 09:10:23;;;;;;;;;;;;;;;;;;6073417;23;20350;-79
2023/06/01 09:12:55;;;;;;;;;;;;;;;;;;6048468;23;19925;-79
2023/06/01 09:15:56;;;;;;;;;;;;;;;;;;6063594;23;19928;-80
2023/06/01 09:19:02;;;;;;;;;;;;;;;;;;6048687;23;19925;-80
2023/06/01 09:21:31;;;;;;;;;;;;;;;;;;6044899;23;19922;-80
2023/06/01 09:24:04;;;;;;;;;;;;;;;;;;6073793;23;19926;-79
2023/06/01 09:26:36;;;;;;;;;;;;;;;;;;6043884;23;19921;-79
2023/06/01 09:29:06;;;;;;;;;;;;;;;;;;6019917;23;20248;-79
2023/06/01 09:31:44;;;;;;;;;;;;;;;;;;6043458;23;20347;-79
2023/06/01 09:34:18;;;;;;;;;;;;;;;;;;6042833;23;19925;-79
2023/06/01 09:39:44;;;;;;;;;;;;;;;;;;6074068;23;19922;-79
2023/06/01 09:42:11;;;;;;;;;;;;;;;;;;6081425;23;19922;-80
2023/06/01 09:44:39;;;;;;;;;;;;;;;;;;6046672;23;19925;-79
2023/06/01 09:47:26;;;;;;;;;;;;;;;;;;6074627;23;19932;-79
2023/06/01 09:50:09;;;;;;;;;;;;;;;;;;6069018;23;19928;-79
2023/06/01 09:52:36;;;;;;;;;;;;;;;;;;6045346;23;19922;-79
2023/06/01 09:55:06;;;;;;;;;;;;;;;;;;6071500;23;19929;-79
2023/06/01 09:57:33;;;;;;;;;;;;;;;;;;6041000;23;20239;-79
2023/06/01 10:00:01;;;;;;;;;;;;;;;;;;6017495;23;20282;-79
2023/06/01 10:02:32;;;;;;;;;;;;;;;;;;6044039;23;19925;-79
2023/06/01 10:05:02;;;;;;;;;;;;;;;;;;6046948;23;19925;-80
2023/06/01 10:07:29;;;;;;;;;;;;;;;;;;6048130;23;19929;-80
2023/06/01 10:10:18;;;;;;;;;;;;;;;;;;6046556;23;19925;-79
2023/06/01 10:12:51;;;;;;;;;;;;;;;;;;6069606;23;19926;-79
2023/06/01 10:15:21;;;;;;;;;;;;;;;;;;6020535;23;19940;-79
2023/06/01 10:17:50;;;;;;;;;;;;;;;;;;6044462;23;20369;-79
2023/06/01 10:20:20;;;;;;;;;;;;;;;;;;6019857;23;19921;-79
2023/06/01 10:22:49;;;;;;;;;;;;;;;;;;6068342;23;19921;-79
2023/06/01 10:25:18;;;;;;;;;;;;;;;;;;6067141;23;19928;-79
2023/06/01 10:27:46;;;;;;;;;;;;;;;;;;6018394;23;19921;-79
2023/06/01 10:30:15;;;;;;;;;;;;;;;;;;6019637;23;19922;-79
2023/06/01 10:32:46;;;;;;;;;;;;;;;;;;6043920;23;19925;-79
2023/06/01 10:35:32;;;;;;;;;;;;;;;;;;6084001;23;19922;-80
2023/06/01 10:38:17;;;;;;;;;;;;;;;;;;6048572;23;19928;-80
2023/06/01 10:56:23;;;;;;;;;;;;;;;;;;6078246;23;19960;-80
2023/06/01 10:59:13;;;;;;;;;;;;;;;;;;6047484;23;19929;-80
2023/06/01 11:01:40;;;;;;;;;;;;;;;;;;6044941;23;19936;-80
2023/06/01 11:04:12;;;;;;;;;;;;;;;;;;6046808;23;20229;-80
2023/06/01 11:06:43;;;;;;;;;;;;;;;;;;6045776;23;19926;-80
2023/06/01 11:09:16;;;;;;;;;;;;;;;;;;6053468;23;19928;-80
2023/06/01 11:12:03;;;;;;;;;;;;;;;;;;6047842;23;19922;-79
2023/06/01 11:14:35;;;;;;;;;;;;;;;;;;6057108;23;19922;-79
2023/06/01 11:17:21;;;;;;;;;;;;;;;;;;6082487;23;19926;-79
2023/06/01 11:19:51;;;;;;;;;;;;;;;;;;6059761;23;19921;-79
2023/06/01 11:22:18;;;;;;;;;;;;;;;;;;6070531;23;20255;-79
2023/06/01 11:24:45;;;;;;;;;;;;;;;;;;6057961;23;19922;-79
2023/06/01 11:27:18;;;;;;;;;;;;;;;;;;6070592;23;19921;-80
2023/06/01 11:29:49;;;;;;;;;;;;;;;;;;6053333;23;19922;-79
2023/06/01 11:32:20;;;;;;;;;;;;;;;;;;6029889;23;19925;-79
2023/06/01 11:34:51;;;;;;;;;;;;;;;;;;6047734;23;19928;-79
2023/06/01 11:37:20;;;;;;;;;;;;;;;;;;6047731;23;19921;-79
2023/06/01 11:39:50;;;;;;;;;;;;;;;;;;6048881;23;19921;-79
2023/06/01 11:42:21;;;;;;;;;;;;;;;;;;6047826;23;19928;-79
2023/06/01 11:45:05;;;;;;;;;;;;;;;;;;6029236;23;19905;-78
2023/06/01 11:47:36;;;;;;;;;;;;;;;;;;6138913;23;20341;-78
2023/06/01 11:50:06;;;;;;;;;;;;;;;;;;6128659;23;19921;-79
2023/06/01 11:52:34;;;;;;;;;;;;;;;;;;6143932;23;19927;-81
2023/06/01 11:55:04;;;;;;;;;;;;;;;;;;6118462;23;19925;-81
2023/06/01 11:57:33;;;;;;;;;;;;;;;;;;6144641;23;19933;-80
2023/06/01 12:00:07;;;;;;;;;;;;;;;;;;6148808;23;19920;-81
2023/06/01 12:02:38;;;;;;;;;;;;;;;;;;6154835;23;19925;-81
2023/06/01 12:05:08;;;;;;;;;;;;;;;;;;6095122;23;19928;-81
2023/06/01 12:07:47;;;;;;;;;;;;;;;;;;6096198;23;19921;-81
2023/06/01 12:10:19;;;;;;;;;;;;;;;;;;6095781;23;19921;-81
2023/06/01 12:12:53;;;;;;;;;;;;;;;;;;6119133;23;20364;-81
2023/06/01 12:15:20;;;;;;;;;;;;;;;;;;6178750;23;19921;-80
2023/06/01 12:17:50;;;;;;;;;;;;;;;;;;6109048;23;19947;-80
2023/06/01 12:20:29;;;;;;;;;;;;;;;;;;6108856;23;19921;-79
2023/06/01 12:23:05;;;;;;;;;;;;;;;;;;6108796;23;20656;-79
2023/06/01 12:25:34;;;;;;;;;;;;;;;;;;6133859;23;19928;-80
2023/06/01 12:28:06;;;;;;;;;;;;;;;;;;6133647;23;19920;-80
2023/06/01 12:30:34;;;;;;;;;;;;;;;;;;6108282;23;19921;-79
2023/06/01 12:33:01;;;;;;;;;;;;;;;;;;6133693;23;19920;-79
2023/06/01 12:35:36;;;;;;;;;;;;;;;;;;6109316;23;19920;-79
2023/06/01 12:38:10;;;;;;;;;;;;;;;;;;6169328;23;19920;-79
2023/06/01 12:40:39;;;;;;;;;;;;;;;;;;6133149;23;19921;-79
2023/06/01 12:43:17;;;;;;;;;;;;;;;;;;6108962;23;20148;-79
2023/06/01 12:45:48;;;;;;;;;;;;;;;;;;6138042;23;19924;-79
2023/06/01 12:48:31;;;;;;;;;;;;;;;;;;6112910;23;19924;-79
2023/06/01 12:51:08;;;;;;;;;;;;;;;;;;6112277;23;19920;-79
2023/06/01 12:53:42;;;;;;;;;;;;;;;;;;6147216;23;20253;-79
2023/06/01 12:56:25;;;;;;;;;;;;;;;;;;6150426;23;19920;-79
2023/06/01 12:59:36;;;;;;;;;;;;;;;;;;6150741;23;19920;-81
2023/06/01 13:02:53;;;;;;;;;;;;;;;;;;;;;
2023/06/01 13:05:45;;;;;;;;;;;;;;;;;;6156733;23;20337;-80
2023/06/01 13:08:35;;;;;;;;;;;;;;;;;;6179967;23;19924;-81
2023/06/01 13:11:28;;;;;;;;;;;;;;;;;;6129834;23;19927;-80
2023/06/01 13:14:05;;;;;;;;;;;;;;;;;;6158314;23;19927;-79
2023/06/01 13:17:02;;;;;;;;;;;;;;;;;;6159641;23;19921;-79
2023/06/01 13:19:49;;;;;;;;;;;;;;;;;;6125585;23;19924;-79
2023/06/01 13:25:52;;;;;;;;;;;;;;;;;;6109704;23;19927;-80
2023/06/01 13:31:49;;;;;;;;;;;;;;;;;;6142727;23;19927;-80
2023/06/01 13:34:54;;;;;;;;;;;;;;;;;;6146034;23;19927;-80
2023/06/01 13:37:37;;;;;;;;;;;;;;;;;;6124376;23;19927;-79
2023/06/01 13:40:04;;;;;;;;;;;;;;;;;;6105574;23;20257;-79
2023/06/01 13:42:32;;;;;;;;;;;;;;;;;;6106718;23;19921;-79
2023/06/01 13:45:01;;;;;;;;;;;;;;;;;;6129248;23;19920;-79
2023/06/01 13:47:28;;;;;;;;;;;;;;;;;;6106419;23;19924;-79
2023/06/01 13:49:58;;;;;;;;;;;;;;;;;;6106637;23;19924;-79
2023/06/01 13:52:26;;;;;;;;;;;;;;;;;;6105976;23;19928;-79
2023/06/01 13:54:55;;;;;;;;;;;;;;;;;;6105839;23;19921;-79
2023/06/01 13:57:28;;;;;;;;;;;;;;;;;;6141766;23;19925;-79
2023/06/01 13:59:55;;;;;;;;;;;;;;;;;;6107352;23;20359;-79
2023/06/01 14:02:22;;;;;;;;;;;;;;;;;;6107061;23;19921;-79
2023/06/01 14:04:52;;;;;;;;;;;;;;;;;;6130962;23;19921;-79
2023/06/01 14:07:19;;;;;;;;;;;;;;;;;;6106295;23;19924;-79
2023/06/01 14:09:46;;;;;;;;;;;;;;;;;;6105671;23;19920;-79
2023/06/01 14:12:15;;;;;;;;;;;;;;;;;;6156266;23;20281;-79
2023/06/01 14:14:44;;;;;;;;;;;;;;;;;;6105446;23;20265;-79
2023/06/01 14:17:11;;;;;;;;;;;;;;;;;;6129384;23;19927;-79
2023/06/01 14:19:38;;;;;;;;;;;;;;;;;;6130441;23;20265;-79
2023/06/01 14:22:05;;;;;;;;;;;;;;;;;;6106983;23;19921;-79
2023/06/01 14:24:35;;;;;;;;;;;;;;;;;;6155878;23;19921;-79
2023/06/01 14:27:04;;;;;;;;;;;;;;;;;;6154774;23;19920;-79
2023/06/01 14:29:32;;;;;;;;;;;;;;;;;;6105681;23;19921;-79
2023/06/01 14:31:59;;;;;;;;;;;;;;;;;;6130013;23;19921;-79
2023/06/01 14:34:27;;;;;;;;;;;;;;;;;;6104556;23;19924;-79
2023/06/01 14:36:54;;;;;;;;;;;;;;;;;;6155181;23;19921;-79
2023/06/01 14:39:21;;;;;;;;;;;;;;;;;;6128910;23;19921;-79
2023/06/01 14:41:48;;;;;;;;;;;;;;;;;;6129491;23;19920;-79
2023/06/01 14:44:15;;;;;;;;;;;;;;;;;;6128461;23;19927;-79
2023/06/01 14:46:48;;;;;;;;;;;;;;;;;;6130532;23;20338;-79
2023/06/01 14:49:15;;;;;;;;;;;;;;;;;;6104468;23;19927;-79
2023/06/01 14:51:57;;;;;;;;;;;;;;;;;;6104860;23;19921;-79
2023/06/01 14:54:28;;;;;;;;;;;;;;;;;;6105101;23;19920;-79
2023/06/01 14:57:01;;;;;;;;;;;;;;;;;;6163406;23;20364;-79
2023/06/01 14:59:28;;;;;;;;;;;;;;;;;;6129493;23;19921;-79
2023/06/01 15:02:00;;;;;;;;;;;;;;;;;;6155477;23;19927;-79
2023/06/01 15:04:30;;;;;;;;;;;;;;;;;;6104937;23;19924;-79
2023/06/01 15:07:00;;;;;;;;;;;;;;;;;;6139792;23;19924;-79
2023/06/01 15:09:32;;;;;;;;;;;;;;;;;;6135192;23;19928;-79
2023/06/01 15:12:02;;;;;;;;;;;;;;;;;;6107043;23;20341;-79
2023/06/01 15:14:29;;;;;;;;;;;;;;;;;;6105938;23;19921;-79
2023/06/01 15:17:02;;;;;;;;;;;;;;;;;;6130730;23;19921;-79
2023/06/01 15:19:29;;;;;;;;;;;;;;;;;;6105355;23;19932;-79
2023/06/01 15:21:57;;;;;;;;;;;;;;;;;;6129704;23;19936;-79
2023/06/01 15:24:24;;;;;;;;;;;;;;;;;;6106020;23;19920;-79
2023/06/01 15:26:51;;;;;;;;;;;;;;;;;;6130695;23;19921;-79
2023/06/01 15:29:20;;;;;;;;;;;;;;;;;;6105590;23;19921;-79
2023/06/01 15:31:47;;;;;;;;;;;;;;;;;;6129747;23;19921;-79
2023/06/01 15:34:18;;;;;;;;;;;;;;;;;;6106681;23;19920;-79
2023/06/01 15:36:45;;;;;;;;;;;;;;;;;;6106398;23;19924;-79
2023/06/01 15:39:15;;;;;;;;;;;;;;;;;;6106542;23;19920;-79
2023/06/01 15:41:44;;;;;;;;;;;;;;;;;;6106554;23;20261;-79
2023/06/01 15:44:11;;;;;;;;;;;;;;;;;;6131232;23;19921;-79
2023/06/01 15:46:38;;;;;;;;;;;;;;;;;;6141905;23;19905;-79
2023/06/01 15:49:10;;;;;;;;;;;;;;;;;;6135238;23;20011;-79
2023/06/01 15:51:39;;;;;;;;;;;;;;;;;;6132050;23;20345;-79
2023/06/01 15:54:11;;;;;;;;;;;;;;;;;;6110914;23;20346;-79
2023/06/01 15:56:42;;;;;;;;;;;;;;;;;;6132174;23;19944;-79
2023/06/01 15:59:09;;;;;;;;;;;;;;;;;;6106144;23;19935;-79
2023/06/01 16:01:40;;;;;;;;;;;;;;;;;;6140369;23;20326;-79
2023/06/01 16:04:10;;;;;;;;;;;;;;;;;;6155685;23;19931;-79
2023/06/01 16:06:40;;;;;;;;;;;;;;;;;;6129146;23;20627;-79
2023/06/01 16:09:07;;;;;;;;;;;;;;;;;;6105804;23;19920;-79
2023/06/01 16:11:36;;;;;;;;;;;;;;;;;;6105657;23;20230;-79
2023/06/01 16:14:03;;;;;;;;;;;;;;;;;;6104987;23;19954;-79
2023/06/01 16:16:32;;;;;;;;;;;;;;;;;;6129646;23;19920;-79
2023/06/01 16:19:01;;;;;;;;;;;;;;;;;;6105392;23;19924;-79
2023/06/01 16:21:33;;;;;;;;;;;;;;;;;;6106395;23;19924;-79
2023/06/01 16:24:06;;;;;;;;;;;;;;;;;;6129297;23;19920;-78
2023/06/01 16:26:38;;;;;;;;;;;;;;;;;;6115021;23;19924;-79
2023/06/01 16:29:05;;;;;;;;;;;;;;;;;;6118921;23;19931;-79
2023/06/01 16:31:32;;;;;;;;;;;;;;;;;;6145920;23;19927;-79
2023/06/01 16:34:01;;;;;;;;;;;;;;;;;;6144287;23;19920;-79
2023/06/01 16:36:28;;;;;;;;;;;;;;;;;;6144981;23;19927;-80
2023/06/01 16:38:55;;;;;;;;;;;;;;;;;;6177071;23;19917;-80
2023/06/01 16:41:27;;;;;;;;;;;;;;;;;;6112475;23;19925;-79
2023/06/01 16:43:54;;;;;;;;;;;;;;;;;;6138615;23;19920;-79
2023/06/01 16:46:21;;;;;;;;;;;;;;;;;;6164163;23;19921;-79
2023/06/01 16:48:48;;;;;;;;;;;;;;;;;;6136004;23;20647;-79
2023/06/01 16:51:19;;;;;;;;;;;;;;;;;;6136320;23;19925;-79
2023/06/01 16:53:50;;;;;;;;;;;;;;;;;;6137240;23;19921;-79
2023/06/01 16:56:19;;;;;;;;;;;;;;;;;;6173132;23;19921;-79
2023/06/01 16:58:47;;;;;;;;;;;;;;;;;;6116370;23;20272;-79
2023/06/01 17:01:16;;;;;;;;;;;;;;;;;;6142886;23;19924;-79
2023/06/01 17:03:44;;;;;;;;;;;;;;;;;;6113586;23;19929;-79
2023/06/01 17:06:11;;;;;;;;;;;;;;;;;;6136759;23;19928;-78
2023/06/01 17:08:38;;;;;;;;;;;;;;;;;;6112621;23;20257;-79
2023/06/01 17:11:05;;;;;;;;;;;;;;;;;;6111569;23;20264;-80
2023/06/01 17:13:32;;;;;;;;;;;;;;;;;;6161813;23;19920;-79
2023/06/01 17:16:04;;;;;;;;;;;;;;;;;;6113322;23;19927;-79
2023/06/01 17:18:36;;;;;;;;;;;;;;;;;;6140197;23;20265;-79
2023/06/01 17:21:03;;;;;;;;;;;;;;;;;;6166285;23;19925;-79
2023/06/01 17:23:33;;;;;;;;;;;;;;;;;;6137724;23;20257;-79
2023/06/01 17:26:02;;;;;;;;;;;;;;;;;;6165609;23;20374;-79
2023/06/01 17:28:29;;;;;;;;;;;;;;;;;;6116112;23;19921;-80
2023/06/01 17:30:59;;;;;;;;;;;;;;;;;;6147408;23;19920;-80
2023/06/01 17:33:27;;;;;;;;;;;;;;;;;;6140903;23;19927;-78
2023/06/01 17:35:56;;;;;;;;;;;;;;;;;;6155188;23;19920;-78
2023/06/01 17:38:23;;;;;;;;;;;;;;;;;;6104503;23;19928;-78
2023/06/01 17:40:50;;;;;;;;;;;;;;;;;;6128689;23;19920;-78